Sylvania, Pennsylvania
Current Conditions -  °F | °C
As of 2:53 AM on Thursday 29 Jan 2015 (Local Time) from KELM Reporting Station
Clear Clear  
Wind Chill: -7°   Ceiling: Unl
Heat Index: -7°   Visibility: 10mi
Dew Point: -11°   Wind: 0mph
Humidity: 83%   Direction: NA
Pressure: 30.29"   Gusts: NA
Location:  41.81°N, 76.86°W
Report Text: KELM 290753Z AUTO 00000KT 10SM CLR M22/M24 A3029 RMK AO2 SLP278 T12171239
Loading
Personal Weather Stations






























Interactive Weather Map New forecast layout! Learn more

10-Day Weather Forecast

Advertisements
Track Severe Weather on mobile